祭りのあと

LUXURY FLIGHT

080-7560-1817

羽田空港本店: 所在地: 東京都大田区羽田空港3-3-2    セントレア店: 所在地: 愛知県常滑市セントレア1-1      HICityファイター店: 所在地: 東京都大田区羽田空港1-1-4
           第1旅客ターミナル5階                  FLIGHT OF DREAMS FLIGHT PARK                 HANEDA INNOVATION CITY ZONE-J 2-5
      営業時間: 10:00~20:00 定休日: 年中無休         営業時間: 10:00~20:00 定休日: 年中無休             営業時間: 10:00~20:00 定休日: 年中無休
      電話番号: 080-7560-1817                  電話番号: 080-4945-5666                     電話番号: 03-5579-7980

lv

祭りのあと

STAFF BLOG

2019/07/29 祭りのあと

こんちわっすーーーーーー

 

 

羽田、本日のMETARは…

 

RJTT 282300Z 17007KT 9999 FEW015 SCT030 BKN170 29/26 Q1013

NOSIG RMK 1CU015 3SC030 6AC170 A2992

 

 

蒸し暑いです…

 

 

さてさてさて、一昨日と昨日は、羽田店周辺にて毎年恒例のお祭りでございました

 

やはり大勢の方が、一丸となって神輿を担ぐ姿は見ていてカッコイイです

 

私も仕事を放り投げて一緒になって盛り上がってしまった事は、社長には絶対内緒です。絶対。

 

 

img_2475

 

 

神輿を担ぐ人も、私のように観戦に徹する人も、みんな楽しそう

 

 

img_2474

 

 

これを見ないと夏が始まった気がしないです

 

 

img_2476

 

羽田では、牛さんも登場

 

普段の日常に突如として現れた牛さん。

迫力がハンパないのは言うまでもありません。

 

 

この雰囲気に感化されたのか、我々スタッフの接客もやや声を張り気味になり、

いつもよりも激しめに。笑

 

…になったかどうかは定かではありませんが、

いつの日か「ラグフラ神輿」でこのお祭りに参加できる日を夢見ております…。

 

いかんせん、このお店にはお祭り男が多いもので…

 

そうなった暁には、掛け声は「ワッショイ!ワッショイ!!」ではなく

「ピッチー!!!!バンクー!!!!!」 ということで…。

 

多分ダメですね、いや、絶対ダメですね。

 

アホですみません…。

 

 

いつもハチャメチャで思いつきなブログにお付き合いくださり、本当にありがとうございます。

 

たまには真面目な事も書きますので、どうか引き続きのお付き合いを何卒よろしくお願いいたしまちゅ。

 

 

 

「感謝」

TOP